sensor_id;sensor_type;location;lat;lon;timestamp;pressure;altitude;pressure_sealevel;temperature;humidity
59391;BME280;53405;57.012;40.984;2023-05-07T00:02:18;100861.09;;;0.45;73.08
59391;BME280;53405;57.012;40.984;2023-05-07T00:04:46;100866.28;;;0.45;72.81
59391;BME280;53405;57.012;40.984;2023-05-07T00:07:13;100867.47;;;0.40;73.99
59391;BME280;53405;57.012;40.984;2023-05-07T00:09:41;100868.41;;;0.53;73.46
59391;BME280;53405;57.012;40.984;2023-05-07T00:12:09;100862.59;;;0.64;73.27
59391;BME280;53405;57.012;40.984;2023-05-07T00:14:37;100863.84;;;0.42;73.95
59391;BME280;53405;57.012;40.984;2023-05-07T00:17:05;100859.03;;;0.36;73.69
59391;BME280;53405;57.012;40.984;2023-05-07T00:19:32;100857.56;;;0.32;75.06
59391;BME280;53405;57.012;40.984;2023-05-07T00:22:00;100872.09;;;0.49;74.06
59391;BME280;53405;57.012;40.984;2023-05-07T00:24:28;100870.91;;;0.40;74.54
59391;BME280;53405;57.012;40.984;2023-05-07T00:26:55;100878.94;;;0.35;74.82
59391;BME280;53405;57.012;40.984;2023-05-07T00:29:25;100871.63;;;0.42;74.63
59391;BME280;53405;57.012;40.984;2023-05-07T00:31:52;100877.19;;;0.36;75.09
59391;BME280;53405;57.012;40.984;2023-05-07T00:34:22;100848.94;;;0.17;74.79
59391;BME280;53405;57.012;40.984;2023-05-07T00:36:49;100873.13;;;0.32;75.02
59391;BME280;53405;57.012;40.984;2023-05-07T00:39:17;100874.13;;;0.29;74.87
59391;BME280;53405;57.012;40.984;2023-05-07T00:41:45;100873.94;;;0.32;75.81
59391;BME280;53405;57.012;40.984;2023-05-07T00:44:13;100870.53;;;0.46;74.79
59391;BME280;53405;57.012;40.984;2023-05-07T00:46:42;100847.66;;;0.24;75.26
59391;BME280;53405;57.012;40.984;2023-05-07T00:49:09;100876.19;;;0.53;74.96
59391;BME280;53405;57.012;40.984;2023-05-07T00:51:37;100854.88;;;0.33;75.34
59391;BME280;53405;57.012;40.984;2023-05-07T00:54:05;100876.09;;;0.40;75.29
59391;BME280;53405;57.012;40.984;2023-05-07T00:56:34;100861.63;;;0.36;75.48
59391;BME280;53405;57.012;40.984;2023-05-07T00:59:02;100881.09;;;0.43;75.36
59391;BME280;53405;57.012;40.984;2023-05-07T01:01:31;100869.84;;;0.28;75.21
59391;BME280;53405;57.012;40.984;2023-05-07T01:03:58;100874.03;;;0.31;76.27
59391;BME280;53405;57.012;40.984;2023-05-07T01:06:26;100873.22;;;0.30;75.80
59391;BME280;53405;57.012;40.984;2023-05-07T01:08:55;100884.47;;;0.29;76.44
59391;BME280;53405;57.012;40.984;2023-05-07T01:11:24;100876.25;;;0.23;76.30
59391;BME280;53405;57.012;40.984;2023-05-07T01:13:53;100861.63;;;0.36;75.71
59391;BME280;53405;57.012;40.984;2023-05-07T01:16:21;100877.94;;;0.38;76.08
59391;BME280;53405;57.012;40.984;2023-05-07T01:18:49;100884.13;;;0.50;75.89
59391;BME280;53405;57.012;40.984;2023-05-07T01:21:17;100889.41;;;0.48;75.82
59391;BME280;53405;57.012;40.984;2023-05-07T01:23:45;100879.41;;;0.42;75.76
59391;BME280;53405;57.012;40.984;2023-05-07T01:26:14;100885.63;;;0.40;75.47
59391;BME280;53405;57.012;40.984;2023-05-07T01:28:45;100888.41;;;0.37;76.07
59391;BME280;53405;57.012;40.984;2023-05-07T01:31:13;100886.38;;;0.42;75.84
59391;BME280;53405;57.012;40.984;2023-05-07T01:33:44;100862.47;;;0.37;75.74
59391;BME280;53405;57.012;40.984;2023-05-07T01:36:13;100879.31;;;0.44;75.98
59391;BME280;53405;57.012;40.984;2023-05-07T01:38:41;100898.34;;;0.28;76.35
59391;BME280;53405;57.012;40.984;2023-05-07T01:41:10;100887.97;;;0.28;76.61
59391;BME280;53405;57.012;40.984;2023-05-07T01:43:40;100859.88;;;0.37;75.36
59391;BME280;53405;57.012;40.984;2023-05-07T01:46:09;100895.72;;;0.44;76.15
59391;BME280;53405;57.012;40.984;2023-05-07T01:48:37;100894.03;;;0.29;76.67
59391;BME280;53405;57.012;40.984;2023-05-07T01:51:08;100897.69;;;0.25;76.52
59391;BME280;53405;57.012;40.984;2023-05-07T01:53:37;100892.03;;;0.63;75.54
59391;BME280;53405;57.012;40.984;2023-05-07T01:56:05;100908.28;;;0.50;75.97
59391;BME280;53405;57.012;40.984;2023-05-07T01:58:36;100908.38;;;0.34;76.20
59391;BME280;53405;57.012;40.984;2023-05-07T02:01:03;100912.16;;;0.29;76.54
59391;BME280;53405;57.012;40.984;2023-05-07T02:03:31;100911.69;;;0.22;76.91
59391;BME280;53405;57.012;40.984;2023-05-07T02:06:07;100905.94;;;0.31;76.64
59391;BME280;53405;57.012;40.984;2023-05-07T02:08:37;100915.66;;;0.28;76.34
59391;BME280;53405;57.012;40.984;2023-05-07T02:11:06;100912.19;;;0.43;75.92
59391;BME280;53405;57.012;40.984;2023-05-07T02:13:36;100914.88;;;0.42;76.11
59391;BME280;53405;57.012;40.984;2023-05-07T02:16:06;100923.31;;;0.60;75.60
59391;BME280;53405;57.012;40.984;2023-05-07T02:18:34;100917.38;;;0.58;75.35
59391;BME280;53405;57.012;40.984;2023-05-07T02:21:03;100925.59;;;0.35;75.54
59391;BME280;53405;57.012;40.984;2023-05-07T02:23:32;100923.63;;;0.25;76.06
59391;BME280;53405;57.012;40.984;2023-05-07T02:25:59;100935.03;;;0.37;76.52
59391;BME280;53405;57.012;40.984;2023-05-07T02:28:27;100927.75;;;0.43;76.02
59391;BME280;53405;57.012;40.984;2023-05-07T02:31:05;100937.47;;;0.40;75.67
59391;BME280;53405;57.012;40.984;2023-05-07T02:33:33;100923.72;;;0.38;75.29
59391;BME280;53405;57.012;40.984;2023-05-07T02:36:09;100925.13;;;0.29;76.52
59391;BME280;53405;57.012;40.984;2023-05-07T02:38:44;100938.50;;;0.66;74.82
59391;BME280;53405;57.012;40.984;2023-05-07T02:41:12;100927.81;;;0.42;74.51
59391;BME280;53405;57.012;40.984;2023-05-07T02:43:40;100937.28;;;0.43;75.33
59391;BME280;53405;57.012;40.984;2023-05-07T02:46:08;100940.81;;;0.56;75.03
59391;BME280;53405;57.012;40.984;2023-05-07T02:48:40;100943.50;;;0.54;74.73
59391;BME280;53405;57.012;40.984;2023-05-07T02:51:08;100934.81;;;1.13;72.97
59391;BME280;53405;57.012;40.984;2023-05-07T02:53:38;100950.19;;;0.73;73.03
59391;BME280;53405;57.012;40.984;2023-05-07T02:56:06;100938.16;;;0.86;74.13
59391;BME280;53405;57.012;40.984;2023-05-07T02:58:33;100942.59;;;0.70;74.07
59391;BME280;53405;57.012;40.984;2023-05-07T03:01:03;100944.91;;;0.89;74.01
59391;BME280;53405;57.012;40.984;2023-05-07T03:03:35;100949.53;;;1.41;71.46
59391;BME280;53405;57.012;40.984;2023-05-07T03:06:03;100947.34;;;1.06;71.59
59391;BME280;53405;57.012;40.984;2023-05-07T03:08:31;100946.19;;;0.82;72.69
59391;BME280;53405;57.012;40.984;2023-05-07T03:10:58;100941.69;;;1.00;73.00
59391;BME280;53405;57.012;40.984;2023-05-07T03:13:26;100952.44;;;0.94;72.63
59391;BME280;53405;57.012;40.984;2023-05-07T03:15:54;100947.88;;;0.97;72.37
59391;BME280;53405;57.012;40.984;2023-05-07T03:18:21;100950.28;;;1.15;71.67
59391;BME280;53405;57.012;40.984;2023-05-07T03:20:49;100950.75;;;1.21;72.04
59391;BME280;53405;57.012;40.984;2023-05-07T03:23:17;100960.28;;;1.21;72.07
59391;BME280;53405;57.012;40.984;2023-05-07T03:25:45;100948.06;;;1.08;71.32
59391;BME280;53405;57.012;40.984;2023-05-07T03:28:13;100952.25;;;1.11;72.02
59391;BME280;53405;57.012;40.984;2023-05-07T03:30:47;100958.88;;;1.44;71.71
59391;BME280;53405;57.012;40.984;2023-05-07T03:33:15;100957.03;;;1.46;70.89
59391;BME280;53405;57.012;40.984;2023-05-07T03:35:43;100957.75;;;1.48;69.79
59391;BME280;53405;57.012;40.984;2023-05-07T03:38:14;100954.34;;;1.48;69.52
59391;BME280;53405;57.012;40.984;2023-05-07T03:40:41;100951.31;;;1.68;69.08
59391;BME280;53405;57.012;40.984;2023-05-07T03:43:09;100950.75;;;1.77;68.98
59391;BME280;53405;57.012;40.984;2023-05-07T03:45:41;100951.88;;;2.01;68.24
59391;BME280;53405;57.012;40.984;2023-05-07T03:48:14;100960.72;;;2.11;67.88
59391;BME280;53405;57.012;40.984;2023-05-07T03:50:43;100961.38;;;1.87;67.90
59391;BME280;53405;57.012;40.984;2023-05-07T03:53:11;100962.13;;;2.29;67.24
59391;BME280;53405;57.012;40.984;2023-05-07T03:55:39;100944.22;;;2.12;67.45
59391;BME280;53405;57.012;40.984;2023-05-07T03:58:07;100956.22;;;2.27;67.79
59391;BME280;53405;57.012;40.984;2023-05-07T04:00:35;100966.41;;;2.30;67.49
59391;BME280;53405;57.012;40.984;2023-05-07T04:03:15;100969.84;;;2.44;66.62
59391;BME280;53405;57.012;40.984;2023-05-07T04:05:42;100976.84;;;2.56;66.92
59391;BME280;53405;57.012;40.984;2023-05-07T04:08:10;100973.94;;;2.61;66.33
59391;BME280;53405;57.012;40.984;2023-05-07T04:10:41;100978.22;;;2.62;66.16
59391;BME280;53405;57.012;40.984;2023-05-07T04:13:10;100978.84;;;2.91;66.00
59391;BME280;53405;57.012;40.984;2023-05-07T04:15:38;100978.44;;;2.71;64.68
59391;BME280;53405;57.012;40.984;2023-05-07T04:18:11;100984.44;;;2.59;64.87
59391;BME280;53405;57.012;40.984;2023-05-07T04:20:41;100966.22;;;2.46;65.03
59391;BME280;53405;57.012;40.984;2023-05-07T04:23:12;100975.25;;;2.41;66.16
59391;BME280;53405;57.012;40.984;2023-05-07T04:25:40;100953.75;;;2.51;64.93
59391;BME280;53405;57.012;40.984;2023-05-07T04:28:25;100979.75;;;2.51;65.08
59391;BME280;53405;57.012;40.984;2023-05-07T04:30:53;100980.19;;;2.71;64.95
59391;BME280;53405;57.012;40.984;2023-05-07T04:33:22;100993.03;;;2.87;65.40
59391;BME280;53405;57.012;40.984;2023-05-07T04:35:51;100989.03;;;3.07;63.89
59391;BME280;53405;57.012;40.984;2023-05-07T04:38:19;100983.03;;;2.94;65.00
59391;BME280;53405;57.012;40.984;2023-05-07T04:40:49;100989.69;;;3.11;62.91
59391;BME280;53405;57.012;40.984;2023-05-07T04:43:21;100985.72;;;3.05;62.78
59391;BME280;53405;57.012;40.984;2023-05-07T04:45:51;100992.41;;;3.09;63.51
59391;BME280;53405;57.012;40.984;2023-05-07T04:48:21;100985.72;;;3.05;63.60
59391;BME280;53405;57.012;40.984;2023-05-07T04:50:51;100997.38;;;2.99;63.75
59391;BME280;53405;57.012;40.984;2023-05-07T04:53:21;100975.31;;;2.92;63.21
59391;BME280;53405;57.012;40.984;2023-05-07T04:55:55;101001.00;;;3.35;62.15
59391;BME280;53405;57.012;40.984;2023-05-07T04:58:26;100996.28;;;3.53;61.11
59391;BME280;53405;57.012;40.984;2023-05-07T05:00:54;100996.78;;;3.95;59.54
59391;BME280;53405;57.012;40.984;2023-05-07T05:03:22;101002.25;;;3.79;59.08
59391;BME280;53405;57.012;40.984;2023-05-07T05:05:51;100999.66;;;3.42;60.29
59391;BME280;53405;57.012;40.984;2023-05-07T05:08:21;101002.66;;;3.49;59.29
59391;BME280;53405;57.012;40.984;2023-05-07T05:10:49;101003.88;;;3.56;57.16
59391;BME280;53405;57.012;40.984;2023-05-07T05:13:17;101002.94;;;3.57;57.21
59391;BME280;53405;57.012;40.984;2023-05-07T05:15:45;101009.19;;;3.68;57.91
59391;BME280;53405;57.012;40.984;2023-05-07T05:18:13;101004.59;;;3.58;56.12
59391;BME280;53405;57.012;40.984;2023-05-07T05:20:41;101000.06;;;3.73;57.33
59391;BME280;53405;57.012;40.984;2023-05-07T05:23:08;101003.91;;;3.80;56.04
59391;BME280;53405;57.012;40.984;2023-05-07T05:25:37;100993.22;;;3.72;57.30
59391;BME280;53405;57.012;40.984;2023-05-07T05:28:09;101006.25;;;3.96;56.87
59391;BME280;53405;57.012;40.984;2023-05-07T05:30:36;101008.47;;;3.90;56.41
59391;BME280;53405;57.012;40.984;2023-05-07T05:33:04;101012.47;;;3.33;57.70
59391;BME280;53405;57.012;40.984;2023-05-07T05:35:45;100993.16;;;3.48;58.72
59391;BME280;53405;57.012;40.984;2023-05-07T05:38:13;101002.88;;;4.07;56.83
59391;BME280;53405;57.012;40.984;2023-05-07T05:40:42;101010.22;;;4.02;55.49
59391;BME280;53405;57.012;40.984;2023-05-07T05:43:09;100993.56;;;3.92;55.95
59391;BME280;53405;57.012;40.984;2023-05-07T05:45:38;101011.19;;;4.12;54.60
59391;BME280;53405;57.012;40.984;2023-05-07T05:48:06;101010.72;;;4.07;54.76
59391;BME280;53405;57.012;40.984;2023-05-07T05:50:34;101008.97;;;4.19;53.89
59391;BME280;53405;57.012;40.984;2023-05-07T05:53:06;100997.66;;;4.31;53.05
59391;BME280;53405;57.012;40.984;2023-05-07T05:55:34;101018.19;;;4.36;53.33
59391;BME280;53405;57.012;40.984;2023-05-07T05:58:01;101015.41;;;4.62;51.40
59391;BME280;53405;57.012;40.984;2023-05-07T06:00:33;101013.00;;;4.47;52.44
59391;BME280;53405;57.012;40.984;2023-05-07T06:03:03;101014.25;;;4.66;51.87
59391;BME280;53405;57.012;40.984;2023-05-07T06:05:31;101016.00;;;4.54;51.77
59391;BME280;53405;57.012;40.984;2023-05-07T06:07:58;101017.22;;;4.73;51.29
59391;BME280;53405;57.012;40.984;2023-05-07T06:10:31;101013.78;;;4.72;50.29
59391;BME280;53405;57.012;40.984;2023-05-07T06:12:59;101016.44;;;5.06;50.62
59391;BME280;53405;57.012;40.984;2023-05-07T06:15:27;101018.47;;;5.02;51.43
59391;BME280;53405;57.012;40.984;2023-05-07T06:17:56;101022.47;;;4.84;50.16
59391;BME280;53405;57.012;40.984;2023-05-07T06:20:24;101016.44;;;4.83;49.69
59391;BME280;53405;57.012;40.984;2023-05-07T06:22:52;101024.22;;;4.72;52.07
59391;BME280;53405;57.012;40.984;2023-05-07T06:25:20;101017.53;;;4.92;50.17
59391;BME280;53405;57.012;40.984;2023-05-07T06:27:48;101006.34;;;4.79;51.56
59391;BME280;53405;57.012;40.984;2023-05-07T06:30:15;101031.31;;;5.17;48.92
59391;BME280;53405;57.012;40.984;2023-05-07T06:32:43;101016.53;;;4.82;50.67
59391;BME280;53405;57.012;40.984;2023-05-07T06:35:12;101025.94;;;4.96;50.08
59391;BME280;53405;57.012;40.984;2023-05-07T06:37:41;101028.31;;;4.87;48.31
59391;BME280;53405;57.012;40.984;2023-05-07T06:40:15;101038.72;;;4.76;50.14
59391;BME280;53405;57.012;40.984;2023-05-07T06:42:46;101050.66;;;4.67;52.65
59391;BME280;53405;57.012;40.984;2023-05-07T06:45:23;101046.03;;;4.71;52.29
59391;BME280;53405;57.012;40.984;2023-05-07T06:47:55;101042.25;;;4.64;52.34
59391;BME280;53405;57.012;40.984;2023-05-07T06:50:23;101046.25;;;4.92;51.61
59391;BME280;53405;57.012;40.984;2023-05-07T06:52:55;101040.41;;;4.53;52.06
59391;BME280;53405;57.012;40.984;2023-05-07T06:55:23;101047.72;;;4.72;50.94
59391;BME280;53405;57.012;40.984;2023-05-07T06:57:50;101039.59;;;4.99;50.95
59391;BME280;53405;57.012;40.984;2023-05-07T07:00:19;101040.50;;;4.87;50.04
59391;BME280;53405;57.012;40.984;2023-05-07T07:02:53;101038.78;;;5.10;51.63
59391;BME280;53405;57.012;40.984;2023-05-07T07:05:24;101041.91;;;5.27;49.76
59391;BME280;53405;57.012;40.984;2023-05-07T07:07:52;101046.16;;;5.16;50.34
59391;BME280;53405;57.012;40.984;2023-05-07T07:10:21;101044.22;;;4.96;51.16
59391;BME280;53405;57.012;40.984;2023-05-07T07:12:50;101042.53;;;4.95;49.92
59391;BME280;53405;57.012;40.984;2023-05-07T07:15:20;101037.72;;;5.47;47.55
59391;BME280;53405;57.012;40.984;2023-05-07T07:17:49;101034.19;;;5.48;47.11
59391;BME280;53405;57.012;40.984;2023-05-07T07:20:16;101039.03;;;5.52;48.18
59391;BME280;53405;57.012;40.984;2023-05-07T07:22:45;101037.97;;;5.77;46.73
59391;BME280;53405;57.012;40.984;2023-05-07T07:25:16;101012.91;;;5.64;45.72
59391;BME280;53405;57.012;40.984;2023-05-07T07:27:43;101046.97;;;5.85;46.53
59391;BME280;53405;57.012;40.984;2023-05-07T07:30:13;101042.34;;;5.77;45.63
59391;BME280;53405;57.012;40.984;2023-05-07T07:32:44;101053.50;;;6.02;42.17
59391;BME280;53405;57.012;40.984;2023-05-07T07:35:12;101050.94;;;5.68;44.04
59391;BME280;53405;57.012;40.984;2023-05-07T07:37:40;101056.63;;;5.73;43.19
59391;BME280;53405;57.012;40.984;2023-05-07T07:40:08;101051.97;;;5.76;44.57
59391;BME280;53405;57.012;40.984;2023-05-07T07:42:36;101059.31;;;5.83;43.94
59391;BME280;53405;57.012;40.984;2023-05-07T07:45:05;101062.78;;;5.94;42.58
59391;BME280;53405;57.012;40.984;2023-05-07T07:47:36;101073.97;;;5.96;43.33
59391;BME280;53405;57.012;40.984;2023-05-07T07:50:04;101072.88;;;5.76;42.94
59391;BME280;53405;57.012;40.984;2023-05-07T07:52:31;101088.56;;;5.88;45.00
59391;BME280;53405;57.012;40.984;2023-05-07T07:54:59;101082.41;;;5.77;45.14
59391;BME280;53405;57.012;40.984;2023-05-07T07:57:30;101076.69;;;5.72;46.16
59391;BME280;53405;57.012;40.984;2023-05-07T07:59:58;101082.88;;;5.71;45.45
59391;BME280;53405;57.012;40.984;2023-05-07T08:02:27;101057.22;;;5.65;48.57
59391;BME280;53405;57.012;40.984;2023-05-07T08:04:55;101075.00;;;6.17;45.92
59391;BME280;53405;57.012;40.984;2023-05-07T08:07:23;101063.53;;;6.40;44.90
59391;BME280;53405;57.012;40.984;2023-05-07T08:09:50;101063.09;;;6.77;45.15
59391;BME280;53405;57.012;40.984;2023-05-07T08:12:22;101075.19;;;6.90;43.21
59391;BME280;53405;57.012;40.984;2023-05-07T08:14:50;101061.16;;;6.91;40.30
59391;BME280;53405;57.012;40.984;2023-05-07T08:17:18;101070.91;;;6.88;40.76
59391;BME280;53405;57.012;40.984;2023-05-07T08:19:46;101059.41;;;6.80;42.65
59391;BME280;53405;57.012;40.984;2023-05-07T08:22:14;101064.72;;;6.90;42.58
59391;BME280;53405;57.012;40.984;2023-05-07T08:24:43;101076.50;;;6.63;42.15
59391;BME280;53405;57.012;40.984;2023-05-07T08:27:12;101045.44;;;6.37;42.97
59391;BME280;53405;57.012;40.984;2023-05-07T08:29:42;101078.69;;;6.58;41.83
59391;BME280;53405;57.012;40.984;2023-05-07T08:32:10;101079.59;;;6.24;42.30
59391;BME280;53405;57.012;40.984;2023-05-07T08:34:37;101067.44;;;6.35;43.60
59391;BME280;53405;57.012;40.984;2023-05-07T08:37:06;101062.00;;;7.22;43.37
59391;BME280;53405;57.012;40.984;2023-05-07T08:39:35;101060.41;;;8.22;40.21
59391;BME280;53405;57.012;40.984;2023-05-07T08:42:09;101048.94;;;9.01;39.08
59391;BME280;53405;57.012;40.984;2023-05-07T08:44:38;101055.69;;;9.51;35.35
59391;BME280;53405;57.012;40.984;2023-05-07T08:47:07;101058.94;;;9.63;33.68
59391;BME280;53405;57.012;40.984;2023-05-07T08:49:36;101023.19;;;9.42;33.49
59391;BME280;53405;57.012;40.984;2023-05-07T08:52:07;101061.19;;;9.57;34.24
59391;BME280;53405;57.012;40.984;2023-05-07T08:54:37;101062.94;;;8.82;35.52
59391;BME280;53405;57.012;40.984;2023-05-07T08:57:08;101054.91;;;8.44;37.67
59391;BME280;53405;57.012;40.984;2023-05-07T08:59:36;101059.09;;;9.33;36.29
59391;BME280;53405;57.012;40.984;2023-05-07T09:02:06;101071.97;;;9.64;34.99
59391;BME280;53405;57.012;40.984;2023-05-07T09:04:37;101056.13;;;8.89;37.25
59391;BME280;53405;57.012;40.984;2023-05-07T09:07:05;101055.84;;;8.04;38.63
59391;BME280;53405;57.012;40.984;2023-05-07T09:09:38;101068.16;;;7.73;38.96
59391;BME280;53405;57.012;40.984;2023-05-07T09:12:06;101049.56;;;7.45;39.31
59391;BME280;53405;57.012;40.984;2023-05-07T09:14:35;101062.56;;;8.07;39.29
59391;BME280;53405;57.012;40.984;2023-05-07T09:17:04;101057.25;;;8.86;36.63
59391;BME280;53405;57.012;40.984;2023-05-07T09:19:32;101054.03;;;9.77;35.27
59391;BME280;53405;57.012;40.984;2023-05-07T09:22:03;101060.19;;;10.14;34.33
59391;BME280;53405;57.012;40.984;2023-05-07T09:24:47;101039.22;;;10.22;34.02
59391;BME280;53405;57.012;40.984;2023-05-07T09:27:17;101060.47;;;10.83;33.28
59391;BME280;53405;57.012;40.984;2023-05-07T09:29:45;101063.78;;;10.31;33.92
59391;BME280;53405;57.012;40.984;2023-05-07T09:32:14;101064.47;;;10.15;34.46
59391;BME280;53405;57.012;40.984;2023-05-07T09:34:43;101066.16;;;10.34;33.64
59391;BME280;53405;57.012;40.984;2023-05-07T09:37:12;101067.19;;;9.50;34.60
59391;BME280;53405;57.012;40.984;2023-05-07T09:39:48;101044.97;;;8.67;34.50
59391;BME280;53405;57.012;40.984;2023-05-07T09:42:24;101067.03;;;8.26;37.82
59391;BME280;53405;57.012;40.984;2023-05-07T09:44:56;101062.22;;;8.70;36.88
59391;BME280;53405;57.012;40.984;2023-05-07T09:47:32;101055.69;;;9.13;37.56
59391;BME280;53405;57.012;40.984;2023-05-07T09:50:05;101066.03;;;9.15;36.73
59391;BME280;53405;57.012;40.984;2023-05-07T09:52:36;101050.50;;;8.64;38.00
59391;BME280;53405;57.012;40.984;2023-05-07T09:55:08;101058.06;;;8.28;39.24
59391;BME280;53405;57.012;40.984;2023-05-07T09:57:37;101056.41;;;8.27;38.24
59391;BME280;53405;57.012;40.984;2023-05-07T10:00:08;101063.84;;;8.03;38.52
59391;BME280;53405;57.012;40.984;2023-05-07T10:02:50;101070.97;;;7.91;39.10
59391;BME280;53405;57.012;40.984;2023-05-07T10:05:26;101074.72;;;7.88;40.47
59391;BME280;53405;57.012;40.984;2023-05-07T10:07:57;101061.91;;;7.64;42.25
59391;BME280;53405;57.012;40.984;2023-05-07T10:10:26;101080.94;;;7.97;40.93
59391;BME280;53405;57.012;40.984;2023-05-07T10:12:55;101058.09;;;8.67;40.38
59391;BME280;53405;57.012;40.984;2023-05-07T10:15:31;101090.72;;;9.79;37.95
59391;BME280;53405;57.012;40.984;2023-05-07T10:18:04;101083.38;;;9.83;37.52
59391;BME280;53405;57.012;40.984;2023-05-07T10:20:36;101079.94;;;10.00;38.00
59391;BME280;53405;57.012;40.984;2023-05-07T10:23:13;101066.56;;;10.29;35.48
59391;BME280;53405;57.012;40.984;2023-05-07T10:25:45;101075.75;;;11.24;34.92
59391;BME280;53405;57.012;40.984;2023-05-07T10:28:19;101064.63;;;11.81;33.32
59391;BME280;53405;57.012;40.984;2023-05-07T10:31:05;101060.97;;;12.08;31.93
59391;BME280;53405;57.012;40.984;2023-05-07T10:33:42;101062.06;;;11.89;31.64
59391;BME280;53405;57.012;40.984;2023-05-07T10:36:14;101064.00;;;11.87;30.39
59391;BME280;53405;57.012;40.984;2023-05-07T10:38:44;101058.53;;;10.85;30.63
59391;BME280;53405;57.012;40.984;2023-05-07T10:41:16;101052.91;;;9.80;33.00
59391;BME280;53405;57.012;40.984;2023-05-07T10:43:47;101061.38;;;10.47;33.84
59391;BME280;53405;57.012;40.984;2023-05-07T10:46:28;101059.47;;;11.97;33.51
59391;BME280;53405;57.012;40.984;2023-05-07T10:49:06;101061.00;;;12.90;31.12
59391;BME280;53405;57.012;40.984;2023-05-07T10:51:43;101062.66;;;12.99;30.51
59391;BME280;53405;57.012;40.984;2023-05-07T10:54:24;101068.09;;;13.06;31.24
59391;BME280;53405;57.012;40.984;2023-05-07T11:05:42;101065.41;;;12.07;33.12
59391;BME280;53405;57.012;40.984;2023-05-07T11:08:20;101067.16;;;11.48;33.67
59391;BME280;53405;57.012;40.984;2023-05-07T11:11:05;101062.69;;;11.40;33.73
59391;BME280;53405;57.012;40.984;2023-05-07T11:13:48;101063.22;;;10.73;34.86
59391;BME280;53405;57.012;40.984;2023-05-07T11:16:43;101059.75;;;11.51;33.11
59391;BME280;53405;57.012;40.984;2023-05-07T11:19:50;101061.50;;;10.64;33.18
59391;BME280;53405;57.012;40.984;2023-05-07T11:25:17;101056.91;;;10.30;31.94
59391;BME280;53405;57.012;40.984;2023-05-07T11:28:07;101036.16;;;11.50;30.98
59391;BME280;53405;57.012;40.984;2023-05-07T11:30:43;101049.81;;;12.63;28.71
59391;BME280;53405;57.012;40.984;2023-05-07T11:33:17;101051.56;;;12.05;30.03
59391;BME280;53405;57.012;40.984;2023-05-07T11:35:46;101059.00;;;11.67;30.63
59391;BME280;53405;57.012;40.984;2023-05-07T11:38:20;101066.25;;;11.31;31.73
59391;BME280;53405;57.012;40.984;2023-05-07T11:40:54;101072.75;;;10.20;32.68
59391;BME280;53405;57.012;40.984;2023-05-07T11:43:23;101072.09;;;9.63;34.91
59391;BME280;53405;57.012;40.984;2023-05-07T11:45:53;101074.38;;;9.48;34.46
59391;BME280;53405;57.012;40.984;2023-05-07T11:48:21;101076.16;;;9.00;35.82
59391;BME280;53405;57.012;40.984;2023-05-07T11:51:11;101070.75;;;9.01;36.25
59391;BME280;53405;57.012;40.984;2023-05-07T11:53:42;101061.97;;;8.83;38.61
59391;BME280;53405;57.012;40.984;2023-05-07T11:56:12;101079.47;;;8.92;38.73
59391;BME280;53405;57.012;40.984;2023-05-07T11:58:41;101040.09;;;9.02;35.70
59391;BME280;53405;57.012;40.984;2023-05-07T12:01:10;101079.63;;;9.00;37.36
59391;BME280;53405;57.012;40.984;2023-05-07T12:03:40;101091.06;;;9.29;34.85
59391;BME280;53405;57.012;40.984;2023-05-07T12:06:15;101053.00;;;8.56;35.62
59391;BME280;53405;57.012;40.984;2023-05-07T12:08:44;101019.38;;;8.01;38.03
59391;BME280;53405;57.012;40.984;2023-05-07T12:11:15;101093.59;;;8.62;37.68
59391;BME280;53405;57.012;40.984;2023-05-07T12:13:48;101093.19;;;8.66;38.07
59391;BME280;53405;57.012;40.984;2023-05-07T12:16:15;101081.59;;;9.36;36.06
59391;BME280;53405;57.012;40.984;2023-05-07T12:18:44;101085.03;;;10.83;34.75
59391;BME280;53405;57.012;40.984;2023-05-07T12:21:12;101068.34;;;11.62;31.64
59391;BME280;53405;57.012;40.984;2023-05-07T12:23:40;101079.31;;;12.18;31.34
59391;BME280;53405;57.012;40.984;2023-05-07T12:26:08;101084.66;;;12.59;31.38
59391;BME280;53405;57.012;40.984;2023-05-07T12:28:38;101090.09;;;12.90;29.86
59391;BME280;53405;57.012;40.984;2023-05-07T12:31:07;101083.66;;;12.76;27.66
59391;BME280;53405;57.012;40.984;2023-05-07T12:33:36;101078.66;;;12.40;28.67
59391;BME280;53405;57.012;40.984;2023-05-07T12:36:06;101089.13;;;11.30;29.62
59391;BME280;53405;57.012;40.984;2023-05-07T12:38:36;101072.72;;;10.48;30.11
59391;BME280;53405;57.012;40.984;2023-05-07T12:41:05;101089.84;;;10.34;30.21
59391;BME280;53405;57.012;40.984;2023-05-07T12:43:34;101085.84;;;9.84;33.29
59391;BME280;53405;57.012;40.984;2023-05-07T12:46:07;101080.41;;;9.58;34.89
59391;BME280;53405;57.012;40.984;2023-05-07T12:48:37;101078.41;;;9.42;34.38
59391;BME280;53405;57.012;40.984;2023-05-07T12:51:05;101084.25;;;9.36;35.95
59391;BME280;53405;57.012;40.984;2023-05-07T12:53:33;101082.69;;;9.43;35.25
59391;BME280;53405;57.012;40.984;2023-05-07T12:56:01;101086.53;;;9.49;34.62
59391;BME280;53405;57.012;40.984;2023-05-07T12:58:30;101079.59;;;9.20;35.99
59391;BME280;53405;57.012;40.984;2023-05-07T13:01:00;101084.81;;;9.30;35.31
59391;BME280;53405;57.012;40.984;2023-05-07T13:03:31;101069.34;;;9.17;34.20
59391;BME280;53405;57.012;40.984;2023-05-07T13:06:07;101087.47;;;9.20;34.92
59391;BME280;53405;57.012;40.984;2023-05-07T13:08:39;101089.16;;;9.01;33.87
59391;BME280;53405;57.012;40.984;2023-05-07T13:11:08;101092.75;;;8.91;34.82
59391;BME280;53405;57.012;40.984;2023-05-07T13:13:38;101102.16;;;8.93;35.92
59391;BME280;53405;57.012;40.984;2023-05-07T13:16:10;101095.13;;;8.74;36.92